sensor_id;sensor_type;location;lat;lon;timestamp;P1;durP1;ratioP1;P2;durP2;ratioP2
20982;SDS011;10650;51.528;6.748;2023-03-30T00:01:12;11.43;;;7.05;;
20982;SDS011;10650;51.528;6.748;2023-03-30T00:03:42;11.20;;;6.10;;
20982;SDS011;10650;51.528;6.748;2023-03-30T00:06:12;11.02;;;6.28;;
20982;SDS011;10650;51.528;6.748;2023-03-30T00:08:47;10.63;;;6.00;;
20982;SDS011;10650;51.528;6.748;2023-03-30T00:11:18;10.80;;;5.70;;
20982;SDS011;10650;51.528;6.748;2023-03-30T00:13:48;10.90;;;5.38;;
20982;SDS011;10650;51.528;6.748;2023-03-30T00:16:16;10.32;;;5.68;;
20982;SDS011;10650;51.528;6.748;2023-03-30T00:18:45;11.38;;;5.68;;
20982;SDS011;10650;51.528;6.748;2023-03-30T00:21:12;10.50;;;5.20;;
20982;SDS011;10650;51.528;6.748;2023-03-30T00:23:43;10.75;;;5.15;;
20982;SDS011;10650;51.528;6.748;2023-03-30T00:26:14;10.02;;;4.93;;
20982;SDS011;10650;51.528;6.748;2023-03-30T00:28:43;7.85;;;4.78;;
20982;SDS011;10650;51.528;6.748;2023-03-30T00:31:11;11.10;;;5.30;;
20982;SDS011;10650;51.528;6.748;2023-03-30T00:33:39;11.95;;;5.30;;
20982;SDS011;10650;51.528;6.748;2023-03-30T00:38:39;11.30;;;5.45;;
20982;SDS011;10650;51.528;6.748;2023-03-30T00:41:07;14.40;;;5.57;;
20982;SDS011;10650;51.528;6.748;2023-03-30T00:46:26;14.20;;;6.57;;
20982;SDS011;10650;51.528;6.748;2023-03-30T00:48:54;13.02;;;6.45;;
20982;SDS011;10650;51.528;6.748;2023-03-30T00:51:25;14.98;;;6.50;;
20982;SDS011;10650;51.528;6.748;2023-03-30T00:53:54;15.43;;;6.38;;
20982;SDS011;10650;51.528;6.748;2023-03-30T00:56:26;14.70;;;6.80;;
20982;SDS011;10650;51.528;6.748;2023-03-30T00:58:57;16.52;;;7.60;;
20982;SDS011;10650;51.528;6.748;2023-03-30T01:01:26;14.63;;;7.38;;
20982;SDS011;10650;51.528;6.748;2023-03-30T01:03:56;12.48;;;5.50;;
20982;SDS011;10650;51.528;6.748;2023-03-30T01:06:27;11.40;;;5.32;;
20982;SDS011;10650;51.528;6.748;2023-03-30T01:08:56;15.07;;;6.05;;
20982;SDS011;10650;51.528;6.748;2023-03-30T01:11:25;11.90;;;5.85;;
20982;SDS011;10650;51.528;6.748;2023-03-30T01:13:54;14.18;;;7.07;;
20982;SDS011;10650;51.528;6.748;2023-03-30T01:16:27;13.95;;;5.85;;
20982;SDS011;10650;51.528;6.748;2023-03-30T01:19:05;13.35;;;6.45;;
20982;SDS011;10650;51.528;6.748;2023-03-30T01:21:56;13.93;;;6.63;;
20982;SDS011;10650;51.528;6.748;2023-03-30T01:24:57;12.52;;;5.85;;
20982;SDS011;10650;51.528;6.748;2023-03-30T01:27:55;12.80;;;6.53;;
20982;SDS011;10650;51.528;6.748;2023-03-30T01:30:47;10.70;;;6.18;;
20982;SDS011;10650;51.528;6.748;2023-03-30T01:33:38;17.15;;;5.82;;
20982;SDS011;10650;51.528;6.748;2023-03-30T01:36:54;10.50;;;4.50;;
20982;SDS011;10650;51.528;6.748;2023-03-30T01:39:55;7.28;;;3.78;;
20982;SDS011;10650;51.528;6.748;2023-03-30T01:42:32;12.27;;;4.35;;
20982;SDS011;10650;51.528;6.748;2023-03-30T01:45:07;12.88;;;4.30;;
20982;SDS011;10650;51.528;6.748;2023-03-30T01:47:44;9.13;;;4.07;;
20982;SDS011;10650;51.528;6.748;2023-03-30T01:50:21;9.77;;;4.13;;
20982;SDS011;10650;51.528;6.748;2023-03-30T01:52:52;8.45;;;4.20;;
20982;SDS011;10650;51.528;6.748;2023-03-30T01:55:27;9.90;;;4.18;;
20982;SDS011;10650;51.528;6.748;2023-03-30T01:57:58;11.55;;;4.20;;
20982;SDS011;10650;51.528;6.748;2023-03-30T02:00:30;9.90;;;4.03;;
20982;SDS011;10650;51.528;6.748;2023-03-30T02:03:04;13.30;;;4.80;;
20982;SDS011;10650;51.528;6.748;2023-03-30T02:05:36;13.27;;;4.70;;
20982;SDS011;10650;51.528;6.748;2023-03-30T02:08:07;13.88;;;4.95;;
20982;SDS011;10650;51.528;6.748;2023-03-30T02:10:40;14.10;;;4.50;;
20982;SDS011;10650;51.528;6.748;2023-03-30T02:13:10;15.23;;;5.27;;
20982;SDS011;10650;51.528;6.748;2023-03-30T02:15:40;12.43;;;4.53;;
20982;SDS011;10650;51.528;6.748;2023-03-30T02:18:11;14.88;;;5.32;;
20982;SDS011;10650;51.528;6.748;2023-03-30T02:20:38;15.07;;;5.00;;
20982;SDS011;10650;51.528;6.748;2023-03-30T02:23:07;13.93;;;5.28;;
20982;SDS011;10650;51.528;6.748;2023-03-30T02:25:36;12.10;;;4.60;;
20982;SDS011;10650;51.528;6.748;2023-03-30T02:28:06;9.43;;;3.75;;
20982;SDS011;10650;51.528;6.748;2023-03-30T02:30:37;13.00;;;4.45;;
20982;SDS011;10650;51.528;6.748;2023-03-30T02:33:07;15.77;;;5.72;;
20982;SDS011;10650;51.528;6.748;2023-03-30T02:35:49;11.85;;;4.43;;
20982;SDS011;10650;51.528;6.748;2023-03-30T02:38:42;14.05;;;5.60;;
20982;SDS011;10650;51.528;6.748;2023-03-30T02:41:26;15.48;;;5.53;;
20982;SDS011;10650;51.528;6.748;2023-03-30T02:44:06;14.85;;;5.70;;
20982;SDS011;10650;51.528;6.748;2023-03-30T02:46:45;12.95;;;4.40;;
20982;SDS011;10650;51.528;6.748;2023-03-30T02:49:28;8.43;;;3.65;;
20982;SDS011;10650;51.528;6.748;2023-03-30T02:52:07;9.43;;;3.80;;
20982;SDS011;10650;51.528;6.748;2023-03-30T02:54:43;8.60;;;3.85;;
20982;SDS011;10650;51.528;6.748;2023-03-30T02:57:18;10.65;;;3.88;;
20982;SDS011;10650;51.528;6.748;2023-03-30T02:59:57;11.02;;;4.15;;
20982;SDS011;10650;51.528;6.748;2023-03-30T03:02:32;8.73;;;3.88;;
20982;SDS011;10650;51.528;6.748;2023-03-30T03:05:07;10.32;;;3.85;;
20982;SDS011;10650;51.528;6.748;2023-03-30T03:07:36;11.43;;;4.30;;
20982;SDS011;10650;51.528;6.748;2023-03-30T03:10:06;11.00;;;4.03;;
20982;SDS011;10650;51.528;6.748;2023-03-30T03:12:35;11.35;;;3.80;;
20982;SDS011;10650;51.528;6.748;2023-03-30T03:15:05;10.20;;;3.33;;
20982;SDS011;10650;51.528;6.748;2023-03-30T03:17:33;8.55;;;3.90;;
20982;SDS011;10650;51.528;6.748;2023-03-30T03:20:02;10.70;;;4.40;;
20982;SDS011;10650;51.528;6.748;2023-03-30T03:22:31;12.73;;;4.72;;
20982;SDS011;10650;51.528;6.748;2023-03-30T03:24:58;12.45;;;4.40;;
20982;SDS011;10650;51.528;6.748;2023-03-30T03:27:27;10.45;;;3.92;;
20982;SDS011;10650;51.528;6.748;2023-03-30T03:29:55;9.80;;;4.28;;
20982;SDS011;10650;51.528;6.748;2023-03-30T03:32:24;9.68;;;4.13;;
20982;SDS011;10650;51.528;6.748;2023-03-30T03:34:52;9.38;;;3.35;;
20982;SDS011;10650;51.528;6.748;2023-03-30T03:37:19;8.80;;;3.55;;
20982;SDS011;10650;51.528;6.748;2023-03-30T03:39:47;8.73;;;2.95;;
20982;SDS011;10650;51.528;6.748;2023-03-30T03:42:15;6.90;;;2.85;;
20982;SDS011;10650;51.528;6.748;2023-03-30T03:44:42;8.23;;;3.00;;
20982;SDS011;10650;51.528;6.748;2023-03-30T03:47:10;5.80;;;2.15;;
20982;SDS011;10650;51.528;6.748;2023-03-30T03:49:43;7.05;;;2.55;;
20982;SDS011;10650;51.528;6.748;2023-03-30T03:52:10;6.25;;;2.72;;
20982;SDS011;10650;51.528;6.748;2023-03-30T03:54:38;7.13;;;2.40;;
20982;SDS011;10650;51.528;6.748;2023-03-30T03:57:06;6.90;;;2.58;;
20982;SDS011;10650;51.528;6.748;2023-03-30T03:59:34;5.05;;;2.25;;
20982;SDS011;10650;51.528;6.748;2023-03-30T04:02:01;5.00;;;2.30;;
20982;SDS011;10650;51.528;6.748;2023-03-30T04:04:30;5.95;;;2.63;;
20982;SDS011;10650;51.528;6.748;2023-03-30T04:06:59;8.52;;;2.40;;
20982;SDS011;10650;51.528;6.748;2023-03-30T04:09:27;6.28;;;2.78;;
20982;SDS011;10650;51.528;6.748;2023-03-30T04:11:55;6.78;;;2.55;;
20982;SDS011;10650;51.528;6.748;2023-03-30T04:14:22;3.85;;;2.10;;
20982;SDS011;10650;51.528;6.748;2023-03-30T04:16:51;4.78;;;2.90;;
20982;SDS011;10650;51.528;6.748;2023-03-30T04:19:18;6.45;;;2.55;;
20982;SDS011;10650;51.528;6.748;2023-03-30T04:21:50;8.65;;;3.25;;
20982;SDS011;10650;51.528;6.748;2023-03-30T04:24:19;13.15;;;3.90;;
20982;SDS011;10650;51.528;6.748;2023-03-30T04:26:47;8.13;;;3.05;;
20982;SDS011;10650;51.528;6.748;2023-03-30T04:29:15;7.88;;;3.17;;
20982;SDS011;10650;51.528;6.748;2023-03-30T04:31:43;6.25;;;3.33;;
20982;SDS011;10650;51.528;6.748;2023-03-30T04:34:12;11.57;;;4.35;;
20982;SDS011;10650;51.528;6.748;2023-03-30T04:36:40;10.43;;;4.10;;
20982;SDS011;10650;51.528;6.748;2023-03-30T04:39:09;10.10;;;4.85;;
20982;SDS011;10650;51.528;6.748;2023-03-30T04:41:38;8.13;;;3.38;;
20982;SDS011;10650;51.528;6.748;2023-03-30T04:44:08;7.00;;;2.55;;
20982;SDS011;10650;51.528;6.748;2023-03-30T04:46:36;5.90;;;2.40;;
20982;SDS011;10650;51.528;6.748;2023-03-30T04:49:04;4.85;;;2.60;;
20982;SDS011;10650;51.528;6.748;2023-03-30T04:51:31;5.78;;;2.35;;
20982;SDS011;10650;51.528;6.748;2023-03-30T04:53:59;5.93;;;2.30;;
20982;SDS011;10650;51.528;6.748;2023-03-30T04:56:28;3.97;;;2.50;;
20982;SDS011;10650;51.528;6.748;2023-03-30T04:58:57;6.15;;;2.42;;
20982;SDS011;10650;51.528;6.748;2023-03-30T05:01:25;7.25;;;2.60;;
20982;SDS011;10650;51.528;6.748;2023-03-30T05:03:52;5.57;;;2.25;;
20982;SDS011;10650;51.528;6.748;2023-03-30T05:06:20;6.63;;;2.58;;
20982;SDS011;10650;51.528;6.748;2023-03-30T05:08:48;10.85;;;2.58;;
20982;SDS011;10650;51.528;6.748;2023-03-30T05:11:16;4.78;;;2.47;;
20982;SDS011;10650;51.528;6.748;2023-03-30T05:13:43;5.78;;;3.00;;
20982;SDS011;10650;51.528;6.748;2023-03-30T05:16:13;9.60;;;3.40;;
20982;SDS011;10650;51.528;6.748;2023-03-30T05:18:41;10.77;;;3.50;;
20982;SDS011;10650;51.528;6.748;2023-03-30T05:21:09;10.07;;;3.83;;
20982;SDS011;10650;51.528;6.748;2023-03-30T05:23:37;10.05;;;3.83;;
20982;SDS011;10650;51.528;6.748;2023-03-30T05:26:06;10.63;;;3.70;;
20982;SDS011;10650;51.528;6.748;2023-03-30T05:28:34;10.82;;;3.10;;
20982;SDS011;10650;51.528;6.748;2023-03-30T05:31:01;6.10;;;2.58;;
20982;SDS011;10650;51.528;6.748;2023-03-30T05:33:31;8.43;;;2.65;;
20982;SDS011;10650;51.528;6.748;2023-03-30T05:35:59;6.72;;;2.78;;
20982;SDS011;10650;51.528;6.748;2023-03-30T05:38:26;11.10;;;2.60;;
20982;SDS011;10650;51.528;6.748;2023-03-30T05:40:54;9.43;;;3.00;;
20982;SDS011;10650;51.528;6.748;2023-03-30T05:43:22;8.93;;;3.00;;
20982;SDS011;10650;51.528;6.748;2023-03-30T05:45:50;7.72;;;2.88;;
20982;SDS011;10650;51.528;6.748;2023-03-30T05:48:17;8.93;;;2.88;;
20982;SDS011;10650;51.528;6.748;2023-03-30T05:50:47;8.35;;;3.08;;
20982;SDS011;10650;51.528;6.748;2023-03-30T05:53:15;8.80;;;3.03;;
20982;SDS011;10650;51.528;6.748;2023-03-30T05:55:43;7.40;;;2.97;;
20982;SDS011;10650;51.528;6.748;2023-03-30T05:58:12;9.10;;;3.60;;
20982;SDS011;10650;51.528;6.748;2023-03-30T06:00:39;7.18;;;3.22;;
20982;SDS011;10650;51.528;6.748;2023-03-30T06:03:07;10.13;;;3.38;;
20982;SDS011;10650;51.528;6.748;2023-03-30T06:05:36;7.90;;;2.80;;
20982;SDS011;10650;51.528;6.748;2023-03-30T06:08:06;6.93;;;2.25;;
20982;SDS011;10650;51.528;6.748;2023-03-30T06:10:34;7.00;;;2.50;;
20982;SDS011;10650;51.528;6.748;2023-03-30T06:13:03;6.90;;;2.78;;
20982;SDS011;10650;51.528;6.748;2023-03-30T06:15:31;6.63;;;2.70;;
20982;SDS011;10650;51.528;6.748;2023-03-30T06:17:59;5.63;;;2.65;;
20982;SDS011;10650;51.528;6.748;2023-03-30T06:20:29;7.97;;;2.85;;
20982;SDS011;10650;51.528;6.748;2023-03-30T06:22:57;4.28;;;2.40;;
20982;SDS011;10650;51.528;6.748;2023-03-30T06:25:26;6.00;;;2.40;;
20982;SDS011;10650;51.528;6.748;2023-03-30T06:27:54;6.20;;;2.10;;
20982;SDS011;10650;51.528;6.748;2023-03-30T06:30:22;7.00;;;2.47;;
20982;SDS011;10650;51.528;6.748;2023-03-30T06:32:50;9.80;;;2.65;;
20982;SDS011;10650;51.528;6.748;2023-03-30T06:35:18;6.18;;;2.60;;
20982;SDS011;10650;51.528;6.748;2023-03-30T06:37:46;6.18;;;3.05;;
20982;SDS011;10650;51.528;6.748;2023-03-30T06:40:14;6.90;;;2.67;;
20982;SDS011;10650;51.528;6.748;2023-03-30T06:42:43;7.13;;;2.55;;
20982;SDS011;10650;51.528;6.748;2023-03-30T06:45:12;4.53;;;2.78;;
20982;SDS011;10650;51.528;6.748;2023-03-30T06:47:40;11.57;;;3.33;;
20982;SDS011;10650;51.528;6.748;2023-03-30T06:50:08;8.00;;;2.90;;
20982;SDS011;10650;51.528;6.748;2023-03-30T06:52:37;7.72;;;2.80;;
20982;SDS011;10650;51.528;6.748;2023-03-30T06:55:05;9.68;;;2.83;;
20982;SDS011;10650;51.528;6.748;2023-03-30T06:57:33;5.40;;;2.40;;
20982;SDS011;10650;51.528;6.748;2023-03-30T07:00:02;6.68;;;2.40;;
20982;SDS011;10650;51.528;6.748;2023-03-30T07:02:35;6.05;;;2.72;;
20982;SDS011;10650;51.528;6.748;2023-03-30T07:05:03;7.90;;;2.90;;
20982;SDS011;10650;51.528;6.748;2023-03-30T07:07:32;8.02;;;3.00;;
20982;SDS011;10650;51.528;6.748;2023-03-30T07:10:01;8.63;;;3.17;;
20982;SDS011;10650;51.528;6.748;2023-03-30T07:12:35;9.10;;;2.90;;
20982;SDS011;10650;51.528;6.748;2023-03-30T07:15:05;7.28;;;2.80;;
20982;SDS011;10650;51.528;6.748;2023-03-30T07:17:34;4.95;;;2.10;;
20982;SDS011;10650;51.528;6.748;2023-03-30T07:20:02;5.95;;;2.53;;
20982;SDS011;10650;51.528;6.748;2023-03-30T07:22:33;7.60;;;2.22;;
20982;SDS011;10650;51.528;6.748;2023-03-30T07:25:01;5.47;;;2.10;;
20982;SDS011;10650;51.528;6.748;2023-03-30T07:27:29;6.25;;;2.17;;
20982;SDS011;10650;51.528;6.748;2023-03-30T07:29:57;7.53;;;2.53;;
20982;SDS011;10650;51.528;6.748;2023-03-30T07:32:37;5.60;;;2.20;;
20982;SDS011;10650;51.528;6.748;2023-03-30T07:35:05;7.00;;;2.50;;
20982;SDS011;10650;51.528;6.748;2023-03-30T07:37:34;4.45;;;1.98;;
20982;SDS011;10650;51.528;6.748;2023-03-30T07:40:03;4.35;;;2.00;;
20982;SDS011;10650;51.528;6.748;2023-03-30T07:42:32;5.10;;;2.38;;
20982;SDS011;10650;51.528;6.748;2023-03-30T07:45:00;6.20;;;2.10;;
20982;SDS011;10650;51.528;6.748;2023-03-30T07:47:28;6.30;;;2.05;;
20982;SDS011;10650;51.528;6.748;2023-03-30T07:49:57;4.78;;;2.08;;
20982;SDS011;10650;51.528;6.748;2023-03-30T07:52:25;5.53;;;2.47;;
20982;SDS011;10650;51.528;6.748;2023-03-30T07:54:52;6.25;;;2.33;;
20982;SDS011;10650;51.528;6.748;2023-03-30T07:57:20;5.35;;;2.53;;
20982;SDS011;10650;51.528;6.748;2023-03-30T07:59:49;6.82;;;2.47;;
20982;SDS011;10650;51.528;6.748;2023-03-30T08:02:17;4.75;;;2.38;;
20982;SDS011;10650;51.528;6.748;2023-03-30T08:04:44;4.88;;;2.55;;
20982;SDS011;10650;51.528;6.748;2023-03-30T08:07:14;6.65;;;2.70;;
20982;SDS011;10650;51.528;6.748;2023-03-30T08:09:43;4.03;;;2.50;;
20982;SDS011;10650;51.528;6.748;2023-03-30T08:12:11;6.68;;;2.83;;
20982;SDS011;10650;51.528;6.748;2023-03-30T08:14:38;4.32;;;2.53;;
20982;SDS011;10650;51.528;6.748;2023-03-30T08:17:06;5.70;;;2.67;;
20982;SDS011;10650;51.528;6.748;2023-03-30T08:19:37;4.45;;;2.58;;
20982;SDS011;10650;51.528;6.748;2023-03-30T08:22:05;5.40;;;2.67;;
20982;SDS011;10650;51.528;6.748;2023-03-30T08:24:34;5.63;;;2.70;;
20982;SDS011;10650;51.528;6.748;2023-03-30T08:27:02;5.72;;;3.38;;
20982;SDS011;10650;51.528;6.748;2023-03-30T08:29:29;7.20;;;3.25;;
20982;SDS011;10650;51.528;6.748;2023-03-30T08:31:58;5.35;;;2.80;;
20982;SDS011;10650;51.528;6.748;2023-03-30T08:34:26;6.78;;;2.60;;
20982;SDS011;10650;51.528;6.748;2023-03-30T08:36:54;7.03;;;2.72;;
20982;SDS011;10650;51.528;6.748;2023-03-30T08:39:23;8.40;;;3.08;;
20982;SDS011;10650;51.528;6.748;2023-03-30T08:44:39;10.20;;;2.90;;
20982;SDS011;10650;51.528;6.748;2023-03-30T08:47:08;5.75;;;2.20;;
20982;SDS011;10650;51.528;6.748;2023-03-30T08:49:40;6.63;;;2.58;;
20982;SDS011;10650;51.528;6.748;2023-03-30T08:52:12;8.60;;;2.40;;
20982;SDS011;10650;51.528;6.748;2023-03-30T08:54:47;7.95;;;2.45;;
20982;SDS011;10650;51.528;6.748;2023-03-30T08:57:21;6.47;;;2.30;;
20982;SDS011;10650;51.528;6.748;2023-03-30T09:00:05;9.63;;;2.67;;
20982;SDS011;10650;51.528;6.748;2023-03-30T09:02:43;7.93;;;2.22;;
20982;SDS011;10650;51.528;6.748;2023-03-30T09:05:18;8.02;;;2.22;;
20982;SDS011;10650;51.528;6.748;2023-03-30T09:07:53;10.27;;;2.47;;
20982;SDS011;10650;51.528;6.748;2023-03-30T09:10:27;6.88;;;2.40;;
20982;SDS011;10650;51.528;6.748;2023-03-30T09:12:59;8.15;;;2.55;;
20982;SDS011;10650;51.528;6.748;2023-03-30T09:15:32;9.98;;;2.30;;
20982;SDS011;10650;51.528;6.748;2023-03-30T09:18:05;6.15;;;2.08;;
20982;SDS011;10650;51.528;6.748;2023-03-30T09:20:42;8.95;;;2.50;;
20982;SDS011;10650;51.528;6.748;2023-03-30T09:23:13;8.25;;;2.33;;
20982;SDS011;10650;51.528;6.748;2023-03-30T09:25:44;8.30;;;2.20;;
20982;SDS011;10650;51.528;6.748;2023-03-30T09:28:21;9.27;;;2.60;;
20982;SDS011;10650;51.528;6.748;2023-03-30T09:30:55;7.40;;;2.22;;
20982;SDS011;10650;51.528;6.748;2023-03-30T09:33:30;6.03;;;2.03;;
20982;SDS011;10650;51.528;6.748;2023-03-30T09:36:09;7.25;;;2.40;;
20982;SDS011;10650;51.528;6.748;2023-03-30T09:38:41;6.88;;;2.13;;
20982;SDS011;10650;51.528;6.748;2023-03-30T09:41:13;9.13;;;2.40;;
20982;SDS011;10650;51.528;6.748;2023-03-30T09:43:52;9.40;;;2.60;;
20982;SDS011;10650;51.528;6.748;2023-03-30T09:46:21;5.95;;;2.25;;
20982;SDS011;10650;51.528;6.748;2023-03-30T09:48:49;9.82;;;2.58;;
20982;SDS011;10650;51.528;6.748;2023-03-30T09:51:19;9.57;;;2.50;;
20982;SDS011;10650;51.528;6.748;2023-03-30T09:53:49;7.43;;;2.55;;
20982;SDS011;10650;51.528;6.748;2023-03-30T09:56:19;9.05;;;2.58;;
20982;SDS011;10650;51.528;6.748;2023-03-30T09:58:55;7.75;;;2.45;;
20982;SDS011;10650;51.528;6.748;2023-03-30T10:01:28;7.20;;;2.67;;
20982;SDS011;10650;51.528;6.748;2023-03-30T10:04:05;10.25;;;2.50;;
20982;SDS011;10650;51.528;6.748;2023-03-30T10:06:38;7.35;;;2.30;;
20982;SDS011;10650;51.528;6.748;2023-03-30T10:09:13;7.15;;;2.60;;
20982;SDS011;10650;51.528;6.748;2023-03-30T10:11:42;10.70;;;2.70;;
20982;SDS011;10650;51.528;6.748;2023-03-30T10:14:18;8.75;;;2.60;;
20982;SDS011;10650;51.528;6.748;2023-03-30T10:16:58;8.95;;;2.70;;
20982;SDS011;10650;51.528;6.748;2023-03-30T10:19:27;10.82;;;2.97;;
20982;SDS011;10650;51.528;6.748;2023-03-30T10:21:56;10.40;;;2.63;;
20982;SDS011;10650;51.528;6.748;2023-03-30T10:24:25;12.10;;;3.05;;
20982;SDS011;10650;51.528;6.748;2023-03-30T10:29:27;11.88;;;4.63;;
20982;SDS011;10650;51.528;6.748;2023-03-30T10:31:56;8.82;;;3.00;;
20982;SDS011;10650;51.528;6.748;2023-03-30T10:34:29;12.15;;;3.10;;
20982;SDS011;10650;51.528;6.748;2023-03-30T10:37:05;7.88;;;2.47;;
20982;SDS011;10650;51.528;6.748;2023-03-30T10:39:37;9.27;;;2.60;;
20982;SDS011;10650;51.528;6.748;2023-03-30T10:42:06;6.93;;;2.17;;
20982;SDS011;10650;51.528;6.748;2023-03-30T10:44:42;9.52;;;2.55;;
20982;SDS011;10650;51.528;6.748;2023-03-30T10:50:27;8.55;;;2.30;;
20982;SDS011;10650;51.528;6.748;2023-03-30T10:53:05;10.40;;;2.80;;
20982;SDS011;10650;51.528;6.748;2023-03-30T10:55:44;8.80;;;2.55;;
20982;SDS011;10650;51.528;6.748;2023-03-30T10:58:19;11.95;;;2.63;;
20982;SDS011;10650;51.528;6.748;2023-03-30T11:01:02;7.22;;;2.40;;
20982;SDS011;10650;51.528;6.748;2023-03-30T11:03:36;11.02;;;2.95;;
20982;SDS011;10650;51.528;6.748;2023-03-30T11:08:39;11.77;;;3.05;;
20982;SDS011;10650;51.528;6.748;2023-03-30T11:11:10;8.63;;;2.83;;
20982;SDS011;10650;51.528;6.748;2023-03-30T11:13:45;8.55;;;2.63;;
20982;SDS011;10650;51.528;6.748;2023-03-30T11:16:19;10.75;;;2.78;;
20982;SDS011;10650;51.528;6.748;2023-03-30T11:18:51;9.77;;;2.83;;
20982;SDS011;10650;51.528;6.748;2023-03-30T11:21:24;10.00;;;3.03;;
20982;SDS011;10650;51.528;6.748;2023-03-30T11:23:56;10.05;;;2.90;;
20982;SDS011;10650;51.528;6.748;2023-03-30T11:26:30;12.77;;;3.28;;
20982;SDS011;10650;51.528;6.748;2023-03-30T11:32:01;9.48;;;3.05;;
20982;SDS011;10650;51.528;6.748;2023-03-30T11:34:42;10.60;;;2.83;;
20982;SDS011;10650;51.528;6.748;2023-03-30T11:37:19;9.88;;;3.00;;
20982;SDS011;10650;51.528;6.748;2023-03-30T11:39:55;9.20;;;2.85;;
20982;SDS011;10650;51.528;6.748;2023-03-30T11:42:34;9.32;;;2.95;;
20982;SDS011;10650;51.528;6.748;2023-03-30T11:45:02;10.43;;;3.05;;
20982;SDS011;10650;51.528;6.748;2023-03-30T11:47:47;9.60;;;2.90;;
20982;SDS011;10650;51.528;6.748;2023-03-30T11:50:33;10.77;;;3.00;;
20982;SDS011;10650;51.528;6.748;2023-03-30T11:53:14;12.82;;;3.17;;
20982;SDS011;10650;51.528;6.748;2023-03-30T11:58:34;9.48;;;2.50;;
20982;SDS011;10650;51.528;6.748;2023-03-30T12:03:57;11.77;;;3.20;;
20982;SDS011;10650;51.528;6.748;2023-03-30T12:06:30;10.32;;;3.22;;
20982;SDS011;10650;51.528;6.748;2023-03-30T12:09:05;9.73;;;3.20;;
20982;SDS011;10650;51.528;6.748;2023-03-30T12:11:52;10.27;;;3.00;;
20982;SDS011;10650;51.528;6.748;2023-03-30T12:14:30;9.80;;;3.00;;
20982;SDS011;10650;51.528;6.748;2023-03-30T12:17:08;10.25;;;3.00;;
20982;SDS011;10650;51.528;6.748;2023-03-30T12:19:46;13.05;;;3.17;;
20982;SDS011;10650;51.528;6.748;2023-03-30T12:22:22;11.88;;;2.80;;
20982;SDS011;10650;51.528;6.748;2023-03-30T12:24:57;11.07;;;3.22;;
20982;SDS011;10650;51.528;6.748;2023-03-30T12:27:35;12.77;;;3.00;;
20982;SDS011;10650;51.528;6.748;2023-03-30T12:30:22;9.48;;;2.95;;
20982;SDS011;10650;51.528;6.748;2023-03-30T12:32:56;9.45;;;2.60;;
20982;SDS011;10650;51.528;6.748;2023-03-30T12:38:19;11.43;;;3.15;;
20982;SDS011;10650;51.528;6.748;2023-03-30T12:46:36;10.88;;;3.13;;
20982;SDS011;10650;51.528;6.748;2023-03-30T12:49:17;7.15;;;2.30;;
20982;SDS011;10650;51.528;6.748;2023-03-30T12:51:56;7.20;;;2.65;;
20982;SDS011;10650;51.528;6.748;2023-03-30T12:57:11;6.40;;;2.67;;
20982;SDS011;10650;51.528;6.748;2023-03-30T12:59:58;3.67;;;1.75;;
20982;SDS011;10650;51.528;6.748;2023-03-30T13:02:37;4.78;;;1.85;;
20982;SDS011;10650;51.528;6.748;2023-03-30T13:05:16;3.23;;;1.07;;
20982;SDS011;10650;51.528;6.748;2023-03-30T13:07:48;5.68;;;1.60;;
20982;SDS011;10650;51.528;6.748;2023-03-30T13:10:35;3.95;;;1.55;;
20982;SDS011;10650;51.528;6.748;2023-03-30T13:13:06;5.22;;;1.42;;
20982;SDS011;10650;51.528;6.748;2023-03-30T13:15:45;4.30;;;1.73;;
20982;SDS011;10650;51.528;6.748;2023-03-30T13:18:25;4.03;;;1.60;;
20982;SDS011;10650;51.528;6.748;2023-03-30T13:21:03;4.55;;;1.58;;
20982;SDS011;10650;51.528;6.748;2023-03-30T13:23:59;4.50;;;2.28;;
20982;SDS011;10650;51.528;6.748;2023-03-30T13:26:47;4.97;;;2.10;;
20982;SDS011;10650;51.528;6.748;2023-03-30T13:29:16;3.88;;;1.85;;
20982;SDS011;10650;51.528;6.748;2023-03-30T13:31:53;3.97;;;1.55;;
20982;SDS011;10650;51.528;6.748;2023-03-30T13:34:31;4.57;;;1.92;;
20982;SDS011;10650;51.528;6.748;2023-03-30T13:37:34;5.53;;;1.77;;
20982;SDS011;10650;51.528;6.748;2023-03-30T13:40:26;4.97;;;2.10;;
20982;SDS011;10650;51.528;6.748;2023-03-30T13:43:12;6.88;;;2.25;;
20982;SDS011;10650;51.528;6.748;2023-03-30T13:45:48;5.18;;;2.35;;
20982;SDS011;10650;51.528;6.748;2023-03-30T13:48:45;9.38;;;3.58;;
20982;SDS011;10650;51.528;6.748;2023-03-30T13:51:20;8.80;;;3.72;;
20982;SDS011;10650;51.528;6.748;2023-03-30T13:53:51;8.53;;;3.00;;
20982;SDS011;10650;51.528;6.748;2023-03-30T13:56:23;8.20;;;2.60;;
20982;SDS011;10650;51.528;6.748;2023-03-30T13:58:54;9.50;;;2.92;;
20982;SDS011;10650;51.528;6.748;2023-03-30T14:01:27;8.38;;;2.90;;
20982;SDS011;10650;51.528;6.748;2023-03-30T14:04:03;9.80;;;2.60;;
20982;SDS011;10650;51.528;6.748;2023-03-30T14:06:45;7.97;;;2.60;;
20982;SDS011;10650;51.528;6.748;2023-03-30T14:09:18;8.32;;;2.78;;
20982;SDS011;10650;51.528;6.748;2023-03-30T14:11:50;7.93;;;2.65;;
20982;SDS011;10650;51.528;6.748;2023-03-30T14:14:21;6.60;;;2.33;;
20982;SDS011;10650;51.528;6.748;2023-03-30T14:16:53;9.10;;;2.63;;
20982;SDS011;10650;51.528;6.748;2023-03-30T14:19:23;10.75;;;3.47;;
20982;SDS011;10650;51.528;6.748;2023-03-30T14:21:54;6.60;;;2.43;;
20982;SDS011;10650;51.528;6.748;2023-03-30T14:24:26;8.32;;;2.60;;
20982;SDS011;10650;51.528;6.748;2023-03-30T14:27:04;12.52;;;3.30;;
20982;SDS011;10650;51.528;6.748;2023-03-30T14:29:33;8.32;;;2.70;;
20982;SDS011;10650;51.528;6.748;2023-03-30T14:32:10;7.38;;;2.80;;
20982;SDS011;10650;51.528;6.748;2023-03-30T14:34:44;9.63;;;2.45;;
20982;SDS011;10650;51.528;6.748;2023-03-30T14:37:12;6.72;;;2.15;;
20982;SDS011;10650;51.528;6.748;2023-03-30T14:39:41;4.18;;;1.90;;
20982;SDS011;10650;51.528;6.748;2023-03-30T14:42:15;5.95;;;2.00;;
20982;SDS011;10650;51.528;6.748;2023-03-30T14:44:45;7.43;;;2.30;;
20982;SDS011;10650;51.528;6.748;2023-03-30T14:47:17;6.13;;;2.08;;
20982;SDS011;10650;51.528;6.748;2023-03-30T14:49:47;7.90;;;2.20;;
20982;SDS011;10650;51.528;6.748;2023-03-30T14:52:18;9.00;;;2.53;;
20982;SDS011;10650;51.528;6.748;2023-03-30T14:54:47;11.10;;;2.67;;
20982;SDS011;10650;51.528;6.748;2023-03-30T14:57:35;7.57;;;2.58;;
20982;SDS011;10650;51.528;6.748;2023-03-30T15:02:43;10.75;;;2.63;;
20982;SDS011;10650;51.528;6.748;2023-03-30T15:05:13;8.45;;;2.53;;
20982;SDS011;10650;51.528;6.748;2023-03-30T15:07:44;9.00;;;2.45;;
20982;SDS011;10650;51.528;6.748;2023-03-30T15:10:21;11.38;;;3.00;;
20982;SDS011;10650;51.528;6.748;2023-03-30T15:12:52;7.07;;;2.25;;
20982;SDS011;10650;51.528;6.748;2023-03-30T15:15:23;12.45;;;2.95;;
20982;SDS011;10650;51.528;6.748;2023-03-30T15:17:53;9.65;;;3.25;;
20982;SDS011;10650;51.528;6.748;2023-03-30T15:20:22;12.18;;;3.55;;
20982;SDS011;10650;51.528;6.748;2023-03-30T15:22:51;10.93;;;2.92;;
20982;SDS011;10650;51.528;6.748;2023-03-30T15:25:20;14.80;;;3.28;;
20982;SDS011;10650;51.528;6.748;2023-03-30T15:27:57;8.40;;;2.20;;
20982;SDS011;10650;51.528;6.748;2023-03-30T15:30:30;5.22;;;1.80;;
20982;SDS011;10650;51.528;6.748;2023-03-30T15:33:01;5.15;;;1.88;;
20982;SDS011;10650;51.528;6.748;2023-03-30T15:35:31;5.30;;;1.80;;
20982;SDS011;10650;51.528;6.748;2023-03-30T15:38:04;5.18;;;1.55;;
20982;SDS011;10650;51.528;6.748;2023-03-30T15:40:47;3.60;;;1.77;;
20982;SDS011;10650;51.528;6.748;2023-03-30T15:43:18;5.97;;;2.00;;
20982;SDS011;10650;51.528;6.748;2023-03-30T15:45:48;6.85;;;2.47;;
20982;SDS011;10650;51.528;6.748;2023-03-30T15:48:21;6.65;;;2.55;;
20982;SDS011;10650;51.528;6.748;2023-03-30T15:50:55;8.05;;;1.90;;
20982;SDS011;10650;51.528;6.748;2023-03-30T15:53:38;8.65;;;2.50;;